createdAt,value
2019-01-05T00:00:49.825Z,50.80
2019-01-05T00:03:32.261Z,49.37
2019-01-05T00:06:05.754Z,54.53
2019-01-05T00:08:41.429Z,51.97
2019-01-05T00:11:11.760Z,51.87
2019-01-05T00:13:56.823Z,53.27
2019-01-05T00:16:29.447Z,50.67
2019-01-05T00:19:16.047Z,52.13
2019-01-05T00:21:54.682Z,54.73
2019-01-05T00:24:28.105Z,48.20
2019-01-05T00:27:17.165Z,57.87
2019-01-05T00:29:47.574Z,52.13
2019-01-05T00:32:40.789Z,57.13
2019-01-05T00:35:33.161Z,55.60
2019-01-05T00:38:18.038Z,53.57
2019-01-05T00:40:54.923Z,51.07
2019-01-05T00:43:25.018Z,54.70
2019-01-05T00:46:12.008Z,54.93
2019-01-05T00:48:58.982Z,54.47
2019-01-05T00:51:44.751Z,54.93
2019-01-05T00:54:32.698Z,51.67
2019-01-05T00:57:13.041Z,49.10
2019-01-05T00:59:55.303Z,53.60
2019-01-05T01:02:41.912Z,53.20
2019-01-05T01:05:14.900Z,50.37
2019-01-05T01:07:53.710Z,51.53
2019-01-05T01:10:26.216Z,49.77
2019-01-05T01:12:58.744Z,55.10
2019-01-05T01:15:32.113Z,49.47
2019-01-05T01:18:04.904Z,54.17
2019-01-05T01:20:35.004Z,52.93
2019-01-05T01:23:05.915Z,50.20
2019-01-05T01:25:52.361Z,52.60
2019-01-05T01:28:39.354Z,51.30
2019-01-05T01:31:25.459Z,54.10
2019-01-05T01:33:55.514Z,53.87
2019-01-05T01:36:40.945Z,49.10
2019-01-05T01:39:19.970Z,54.97
2019-01-05T01:41:50.182Z,54.70
2019-01-05T01:44:37.126Z,54.70
2019-01-05T01:47:13.053Z,51.83
2019-01-05T01:49:47.175Z,53.80
2019-01-05T01:52:17.296Z,55.07
2019-01-05T01:54:49.846Z,57.63
2019-01-05T01:57:26.023Z,54.43
2019-01-05T02:00:10.529Z,56.20
2019-01-05T02:02:55.919Z,56.57
2019-01-05T02:05:26.096Z,55.70
2019-01-05T02:07:56.902Z,51.47
2019-01-05T02:10:34.661Z,55.33
2019-01-05T02:13:06.404Z,53.80
2019-01-05T02:15:53.363Z,57.77
2019-01-05T02:18:35.413Z,54.80
2019-01-05T02:21:44.451Z,55.93
2019-01-05T02:24:32.679Z,58.77
2019-01-05T02:27:24.759Z,54.63
2019-01-05T02:30:21.584Z,55.20
2019-01-05T02:33:18.337Z,53.83
2019-01-05T02:36:09.596Z,57.47
2019-01-05T02:38:57.257Z,64.53
2019-01-05T02:41:44.692Z,58.80
2019-01-05T02:44:29.681Z,57.70
2019-01-05T02:47:48.478Z,59.93
2019-01-05T02:50:21.670Z,61.53
2019-01-05T02:53:09.591Z,55.73
2019-01-05T02:56:19.778Z,65.90
2019-01-05T02:59:13.902Z,58.40
2019-01-05T03:02:23.122Z,57.17
2019-01-05T03:05:10.632Z,64.20
2019-01-05T03:08:09.705Z,56.93
2019-01-05T03:10:59.600Z,65.10
2019-01-05T03:14:17.832Z,63.27
2019-01-05T03:17:26.782Z,65.67
2019-01-05T03:20:19.642Z,62.40
2019-01-05T03:23:19.865Z,65.60
2019-01-05T03:26:23.088Z,65.30
2019-01-05T03:29:16.012Z,73.03
2019-01-05T03:32:25.036Z,69.50
2019-01-05T03:35:10.013Z,75.23
2019-01-05T03:38:02.432Z,79.00
2019-01-05T03:40:56.751Z,75.33
2019-01-05T03:43:47.601Z,94.30
2019-01-05T03:46:41.369Z,79.77
2019-01-05T03:49:26.412Z,77.27
2019-01-05T03:52:27.141Z,83.43
2019-01-05T03:55:36.431Z,70.77
2019-01-05T03:58:30.649Z,73.33
2019-01-05T04:01:51.190Z,76.10
2019-01-05T04:04:57.783Z,78.27
2019-01-05T04:07:52.009Z,74.63
2019-01-05T04:10:47.236Z,78.30
2019-01-05T04:13:36.962Z,75.90
2019-01-05T04:16:16.220Z,73.63
2019-01-05T04:19:01.025Z,78.73
2019-01-05T04:22:07.413Z,74.67
2019-01-05T04:25:02.930Z,71.93
2019-01-05T04:28:11.641Z,76.23
2019-01-05T04:30:56.400Z,76.00
2019-01-05T04:33:41.172Z,74.30
2019-01-05T04:36:52.176Z,69.30
2019-01-05T04:40:00.234Z,70.30
2019-01-05T04:43:03.574Z,66.53
2019-01-05T04:46:10.981Z,64.17
2019-01-05T04:49:20.578Z,57.17
2019-01-05T04:52:25.468Z,63.50
2019-01-05T04:55:14.685Z,58.77
2019-01-05T04:58:20.674Z,52.97
2019-01-05T05:01:24.504Z,53.30
2019-01-05T05:04:33.727Z,49.37
2019-01-05T05:07:27.645Z,54.97
2019-01-05T05:10:33.609Z,51.73
2019-01-05T05:13:35.125Z,49.70
2019-01-05T05:16:33.856Z,44.43
2019-01-05T05:19:35.083Z,43.73
2019-01-05T05:22:37.940Z,46.37
2019-01-05T05:25:48.409Z,42.80
2019-01-05T05:28:30.446Z,48.97
2019-01-05T05:31:34.034Z,37.80
2019-01-05T05:34:38.960Z,35.23
2019-01-05T05:37:50.766Z,38.57
2019-01-05T05:40:41.643Z,33.97
2019-01-05T05:43:43.466Z,35.10
2019-01-05T05:46:42.195Z,33.03
2019-01-05T05:49:46.942Z,32.57
2019-01-05T05:52:37.947Z,37.03
2019-01-05T05:55:39.853Z,34.83
2019-01-05T05:58:27.456Z,33.10
2019-01-05T06:01:28.863Z,32.93
2019-01-05T06:04:21.480Z,34.90
2019-01-05T06:07:30.778Z,35.10
2019-01-05T06:10:41.752Z,35.20
2019-01-05T06:13:39.736Z,35.40
2019-01-05T06:16:35.614Z,37.00
2019-01-05T06:19:36.054Z,32.60
2019-01-05T06:22:33.528Z,34.53
2019-01-05T06:25:39.338Z,35.57
2019-01-05T06:28:55.224Z,33.60
2019-01-05T06:32:19.645Z,34.27
2019-01-05T06:35:04.711Z,37.83
2019-01-05T06:37:49.591Z,32.00
2019-01-05T06:40:28.356Z,34.50
2019-01-05T06:43:46.953Z,33.33
2019-01-05T06:46:34.358Z,35.83
2019-01-05T06:49:39.355Z,30.87
2019-01-05T06:52:44.023Z,31.90
2019-01-05T06:55:37.579Z,34.87
2019-01-05T06:58:31.194Z,32.27
2019-01-05T07:01:35.558Z,33.90
2019-01-05T07:04:34.367Z,32.60
2019-01-05T07:10:23.667Z,33.93
2019-01-05T07:13:22.028Z,35.70
2019-01-05T07:16:22.954Z,34.63
2019-01-05T07:19:38.195Z,35.00
2019-01-05T07:22:20.038Z,36.43
2019-01-05T07:25:19.058Z,37.23
2019-01-05T07:28:27.866Z,36.23
2019-01-05T07:31:29.470Z,37.27
2019-01-05T07:37:37.751Z,36.43
2019-01-05T07:40:42.519Z,35.20
2019-01-05T07:43:57.696Z,44.00
2019-01-05T07:47:10.513Z,42.87
2019-01-05T07:50:09.440Z,42.40
2019-01-05T07:53:26.087Z,41.60
2019-01-05T07:56:43.082Z,49.53
2019-01-05T07:59:47.427Z,44.93
2019-01-05T08:02:41.682Z,47.60
2019-01-05T08:05:53.420Z,47.87
2019-01-05T08:08:49.070Z,52.40
2019-01-05T08:11:31.195Z,47.87
2019-01-05T08:14:19.382Z,46.80
2019-01-05T08:17:18.240Z,46.07
2019-01-05T08:20:24.890Z,83.17
2019-01-05T08:23:27.088Z,50.73
2019-01-05T08:26:18.206Z,49.33
2019-01-05T08:29:16.961Z,51.43
2019-01-05T08:32:23.438Z,50.00
2019-01-05T08:35:04.968Z,47.23
2019-01-05T08:38:22.493Z,48.87
2019-01-05T08:41:28.906Z,52.07
2019-01-05T08:44:25.426Z,48.83
2019-01-05T08:50:46.091Z,49.83
2019-01-05T08:53:56.045Z,52.67
2019-01-05T08:56:57.370Z,47.20
2019-01-05T08:59:50.145Z,43.87
2019-01-05T09:02:52.150Z,48.90
2019-01-05T09:06:09.242Z,50.00
2019-01-05T09:09:15.321Z,45.90
2019-01-05T09:12:10.983Z,47.20
2019-01-05T09:15:02.202Z,60.77
2019-01-05T09:17:47.056Z,47.60
2019-01-05T09:20:57.798Z,48.07
2019-01-05T09:23:46.103Z,47.40
2019-01-05T09:27:00.173Z,51.03
2019-01-05T09:29:55.812Z,45.83
2019-01-05T09:32:40.996Z,43.07
2019-01-05T09:35:26.495Z,48.23
2019-01-05T09:38:23.722Z,46.90
2019-01-05T09:41:09.217Z,50.97
2019-01-05T09:44:21.824Z,51.43
2019-01-05T09:47:13.258Z,52.40
2019-01-05T09:50:28.729Z,51.43
2019-01-05T09:53:36.388Z,49.07
2019-01-05T09:56:21.310Z,51.87
2019-01-05T09:59:37.994Z,50.87
2019-01-05T10:02:39.539Z,50.83
2019-01-05T10:05:19.097Z,49.97
2019-01-05T10:08:12.041Z,45.37
2019-01-05T10:11:00.524Z,44.70
2019-01-05T10:14:14.506Z,43.80
2019-01-05T10:17:11.327Z,42.20
2019-01-05T10:20:01.328Z,41.03
2019-01-05T10:23:16.731Z,39.97
2019-01-05T10:26:24.391Z,40.70
2019-01-05T10:29:22.596Z,42.37
2019-01-05T10:32:12.988Z,35.70
2019-01-05T10:35:35.763Z,36.23
2019-01-05T10:38:31.599Z,36.30
2019-01-05T10:41:34.992Z,46.00
2019-01-05T10:44:27.397Z,36.53
2019-01-05T10:47:21.695Z,34.23
2019-01-05T10:50:03.727Z,34.40
2019-01-05T10:53:21.871Z,36.07
2019-01-05T10:56:28.359Z,33.80
2019-01-05T10:59:37.499Z,33.13
2019-01-05T11:02:34.565Z,33.17
2019-01-05T11:05:49.572Z,33.57
2019-01-05T11:08:37.305Z,33.30
2019-01-05T11:11:42.063Z,35.17
2019-01-05T11:14:51.417Z,33.47
2019-01-05T11:17:55.027Z,33.80
2019-01-05T11:20:53.590Z,32.57
2019-01-05T11:23:58.524Z,31.90
2019-01-05T11:27:05.381Z,35.10
2019-01-05T11:29:58.520Z,31.10
2019-01-05T11:33:15.978Z,31.60
2019-01-05T11:36:07.077Z,29.90
2019-01-05T11:39:09.289Z,31.10
2019-01-05T11:42:11.367Z,26.13
2019-01-05T11:45:06.378Z,26.27
2019-01-05T11:47:54.436Z,24.43
2019-01-05T11:50:52.804Z,23.17
2019-01-05T11:53:49.364Z,25.07
2019-01-05T11:57:04.448Z,25.77
2019-01-05T11:59:55.382Z,23.60
2019-01-05T12:02:46.577Z,24.97
2019-01-05T12:06:02.202Z,23.80
2019-01-05T12:09:07.897Z,22.10
2019-01-05T12:11:47.160Z,25.07
2019-01-05T12:14:25.932Z,24.00
2019-01-05T12:17:34.104Z,24.67
2019-01-05T12:20:58.432Z,23.23
2019-01-05T12:24:04.280Z,21.60
2019-01-05T12:27:18.059Z,20.90
2019-01-05T12:30:22.616Z,20.07
2019-01-05T12:33:17.143Z,18.93
2019-01-05T12:36:01.955Z,20.93
2019-01-05T12:39:14.444Z,20.87
2019-01-05T12:42:20.223Z,21.57
2019-01-05T12:45:17.206Z,19.10
2019-01-05T12:48:12.587Z,19.30
2019-01-05T12:51:00.766Z,19.90
2019-01-05T12:54:07.449Z,18.97
2019-01-05T12:57:06.452Z,19.10
2019-01-05T13:00:09.787Z,22.07
2019-01-05T13:03:22.395Z,20.33
2019-01-05T13:06:31.535Z,21.97
2019-01-05T13:09:36.684Z,23.30
2019-01-05T13:12:38.438Z,25.10
2019-01-05T13:15:32.463Z,26.30
2019-01-05T13:18:20.294Z,23.23
2019-01-05T13:21:29.695Z,23.73
2019-01-05T13:24:31.652Z,25.57
2019-01-05T13:27:22.851Z,21.80
2019-01-05T13:30:13.103Z,21.33
2019-01-05T13:33:16.525Z,21.87
2019-01-05T13:36:08.898Z,22.00
2019-01-05T13:39:21.018Z,19.93
2019-01-05T13:42:21.093Z,19.67
2019-01-05T13:45:40.745Z,19.23
2019-01-05T13:48:22.480Z,19.17
2019-01-05T13:51:30.338Z,19.50
2019-01-05T13:54:17.033Z,19.30
2019-01-05T13:56:59.020Z,16.57
2019-01-05T13:59:34.744Z,16.50
2019-01-05T14:02:21.248Z,16.20
2019-01-05T14:04:53.716Z,15.10
2019-01-05T14:07:23.798Z,15.60
2019-01-05T14:10:10.128Z,14.77
2019-01-05T14:12:51.845Z,13.57
2019-01-05T14:15:24.735Z,12.30
2019-01-05T14:17:57.609Z,12.50
2019-01-05T14:20:27.874Z,10.83
2019-01-05T14:23:00.621Z,10.97
2019-01-05T14:25:31.130Z,10.70
2019-01-05T14:28:16.301Z,10.20
2019-01-05T14:31:01.429Z,11.03
2019-01-05T14:33:48.956Z,10.63
2019-01-05T14:36:25.053Z,10.30
2019-01-05T14:38:57.717Z,9.83
2019-01-05T14:41:27.790Z,12.07
2019-01-05T14:43:57.938Z,11.53
2019-01-05T14:46:37.154Z,11.27
2019-01-05T14:49:23.397Z,11.03
2019-01-05T14:52:00.129Z,10.03
2019-01-05T14:54:34.041Z,6.63
2019-01-05T14:57:06.551Z,8.20
2019-01-05T14:59:45.531Z,7.13
2019-01-05T15:02:18.040Z,8.37
2019-01-05T15:04:48.165Z,5.37
2019-01-05T15:07:18.190Z,6.93
2019-01-05T15:09:54.592Z,6.47
2019-01-05T15:12:40.344Z,5.27
2019-01-05T15:15:14.027Z,5.67
2019-01-05T15:17:44.688Z,4.97
2019-01-05T15:20:31.682Z,4.93
2019-01-05T15:23:07.909Z,4.33
2019-01-05T15:25:47.090Z,4.30
2019-01-05T15:28:17.100Z,4.97
2019-01-05T15:30:50.094Z,3.40
2019-01-05T15:33:36.339Z,3.63
2019-01-05T15:36:12.294Z,3.93
2019-01-05T15:38:48.111Z,4.40
2019-01-05T15:41:27.140Z,4.33
2019-01-05T15:44:00.052Z,5.70
2019-01-05T15:46:33.186Z,3.77
2019-01-05T15:49:21.203Z,3.30
2019-01-05T15:51:56.883Z,3.00
2019-01-05T15:54:30.011Z,3.20
2019-01-05T15:57:16.208Z,6.47
2019-01-05T15:59:51.950Z,3.83
2019-01-05T16:02:33.819Z,3.63
2019-01-05T16:05:03.846Z,3.93
2019-01-05T16:07:34.070Z,4.53
2019-01-05T16:10:10.291Z,4.90
2019-01-05T16:12:55.008Z,5.93
2019-01-05T16:15:30.593Z,7.40
2019-01-05T16:18:16.826Z,4.07
2019-01-05T16:21:05.510Z,4.50
2019-01-05T16:23:44.503Z,5.20
2019-01-05T16:26:14.545Z,7.03
2019-01-05T16:28:46.995Z,5.10
2019-01-05T16:31:33.000Z,5.43
2019-01-05T16:34:20.806Z,5.77
2019-01-05T16:37:07.285Z,5.63
2019-01-05T16:39:42.775Z,7.40
2019-01-05T16:42:21.376Z,6.47
2019-01-05T16:44:54.422Z,7.63
2019-01-05T16:47:39.499Z,9.23
2019-01-05T16:50:25.762Z,7.23
2019-01-05T16:53:11.225Z,6.43
2019-01-05T16:55:59.321Z,7.77
2019-01-05T16:58:43.537Z,6.57
2019-01-05T17:01:30.158Z,6.03
2019-01-05T17:04:16.882Z,7.77
2019-01-05T17:06:47.178Z,5.17
2019-01-05T17:09:33.370Z,5.50
2019-01-05T17:12:10.229Z,5.97
2019-01-05T17:14:43.725Z,6.27
2019-01-05T17:17:14.223Z,5.97
2019-01-05T17:19:54.416Z,6.57
2019-01-05T17:22:33.985Z,7.70
2019-01-05T17:25:16.055Z,6.70
2019-01-05T17:27:49.104Z,5.67
2019-01-05T17:30:35.749Z,8.93
2019-01-05T17:33:22.463Z,6.13
2019-01-05T17:36:08.667Z,5.30
2019-01-05T17:38:53.741Z,4.10
2019-01-05T17:41:26.542Z,10.87
2019-01-05T17:44:08.657Z,5.27
2019-01-05T17:46:38.660Z,4.20
2019-01-05T17:49:08.704Z,4.67
2019-01-05T17:51:47.273Z,5.50
2019-01-05T17:54:31.771Z,3.87
2019-01-05T17:57:17.119Z,5.10
2019-01-05T17:59:47.209Z,4.67
2019-01-05T18:02:17.382Z,5.00
2019-01-05T18:04:55.999Z,5.17
2019-01-05T18:07:31.656Z,5.13
2019-01-05T18:10:16.827Z,5.03
2019-01-05T18:13:00.212Z,4.53
2019-01-05T18:15:33.410Z,4.50
2019-01-05T18:18:06.724Z,4.33
2019-01-05T18:20:40.438Z,5.23
2019-01-05T18:23:10.772Z,4.73
2019-01-05T18:26:01.819Z,4.40
2019-01-05T18:28:38.359Z,6.07
2019-01-05T18:31:25.751Z,5.63
2019-01-05T18:34:01.741Z,5.33
2019-01-05T18:36:49.950Z,4.97
2019-01-05T18:39:30.170Z,5.90
2019-01-05T18:42:16.739Z,5.97
2019-01-05T18:45:03.363Z,5.17
2019-01-05T18:47:43.923Z,5.67
2019-01-05T18:50:23.557Z,4.97
2019-01-05T18:53:10.127Z,6.57
2019-01-05T18:55:48.896Z,6.10
2019-01-05T18:58:27.073Z,5.73
2019-01-05T19:01:15.090Z,6.07
2019-01-05T19:03:45.339Z,5.73
2019-01-05T19:06:15.581Z,6.40
2019-01-05T19:08:45.779Z,6.70
2019-01-05T19:11:28.022Z,7.77
2019-01-05T19:14:13.247Z,6.57
2019-01-05T19:16:49.436Z,6.73
2019-01-05T19:19:35.651Z,7.10
2019-01-05T19:22:20.182Z,6.30
2019-01-05T19:25:09.765Z,5.73
2019-01-05T19:27:57.428Z,6.13
2019-01-05T19:30:46.279Z,6.90
2019-01-05T19:33:32.688Z,7.03
2019-01-05T19:36:20.202Z,8.83
2019-01-05T19:38:56.731Z,7.57
2019-01-05T19:41:43.110Z,8.50
2019-01-05T19:44:19.287Z,9.40
2019-01-05T19:47:04.721Z,9.13
2019-01-05T19:49:51.487Z,9.60
2019-01-05T19:52:30.912Z,9.33
2019-01-05T19:55:07.411Z,36.07
2019-01-05T19:57:54.173Z,41.00
2019-01-05T20:00:40.919Z,39.43
2019-01-05T20:03:13.921Z,18.07
2019-01-05T20:05:43.952Z,229.27
2019-01-05T20:08:17.080Z,21.90
2019-01-05T20:11:04.893Z,12.60
2019-01-05T20:13:53.061Z,9.90
2019-01-05T20:16:39.924Z,11.53
2019-01-05T20:19:21.758Z,10.20
2019-01-05T20:21:53.333Z,11.90
2019-01-05T20:24:41.664Z,9.53
2019-01-05T20:27:14.682Z,9.63
2019-01-05T20:29:55.123Z,11.87
2019-01-05T20:32:33.973Z,12.10
2019-01-05T20:35:21.946Z,13.70
2019-01-05T20:38:10.333Z,12.40
2019-01-05T20:40:49.295Z,16.57
2019-01-05T20:43:19.338Z,14.40
2019-01-05T20:46:08.014Z,13.37
2019-01-05T20:48:44.134Z,15.73
2019-01-05T20:51:28.978Z,14.97
2019-01-05T20:54:14.891Z,14.00
2019-01-05T20:56:51.010Z,13.90
2019-01-05T20:59:32.826Z,13.30
2019-01-05T21:02:11.753Z,12.23
2019-01-05T21:04:54.284Z,11.83
2019-01-05T21:07:40.507Z,11.40
2019-01-05T21:10:16.737Z,12.33
2019-01-05T21:13:05.307Z,13.13
2019-01-05T21:15:51.757Z,12.37
2019-01-05T21:18:38.134Z,13.53
2019-01-05T21:21:08.137Z,14.43
2019-01-05T21:23:46.729Z,11.97
2019-01-05T21:26:24.516Z,13.63
2019-01-05T21:29:02.861Z,11.67
2019-01-05T21:31:32.852Z,12.70
2019-01-05T21:34:18.220Z,11.50
2019-01-05T21:36:48.223Z,12.93
2019-01-05T21:39:19.168Z,15.23
2019-01-05T21:41:55.298Z,13.67
2019-01-05T21:44:25.914Z,12.80
2019-01-05T21:47:13.679Z,13.33
2019-01-05T21:49:52.391Z,14.63
2019-01-05T21:52:25.382Z,15.67
2019-01-05T21:54:58.167Z,13.97
2019-01-05T21:57:33.922Z,15.13
2019-01-05T22:00:10.163Z,16.23
2019-01-05T22:02:40.174Z,16.70
2019-01-05T22:05:12.944Z,14.53
2019-01-05T22:07:42.947Z,16.07
2019-01-05T22:10:13.513Z,17.30
2019-01-05T22:12:58.828Z,14.67
2019-01-05T22:15:45.228Z,15.20
2019-01-05T22:18:18.774Z,15.23
2019-01-05T22:20:56.840Z,16.20
2019-01-05T22:23:26.984Z,15.23
2019-01-05T22:26:13.576Z,15.43
2019-01-05T22:28:46.714Z,15.57
2019-01-05T22:31:35.059Z,16.00
2019-01-05T22:34:11.457Z,16.90
2019-01-05T22:36:50.716Z,15.90
2019-01-05T22:39:36.335Z,14.47
2019-01-05T22:42:09.507Z,14.13
2019-01-05T22:44:42.645Z,14.33
2019-01-05T22:47:13.415Z,12.97
2019-01-05T22:49:49.961Z,12.20
2019-01-05T22:52:20.061Z,12.07
2019-01-05T22:55:08.611Z,13.73
2019-01-05T22:57:55.283Z,13.50
2019-01-05T23:00:34.263Z,13.20
2019-01-05T23:03:07.636Z,11.57
2019-01-05T23:05:41.041Z,12.83
2019-01-05T23:08:14.406Z,11.87
2019-01-05T23:10:56.927Z,11.50
2019-01-05T23:13:43.265Z,11.33
2019-01-05T23:16:13.477Z,11.10
2019-01-05T23:18:49.334Z,11.27
2019-01-05T23:21:19.614Z,8.80
2019-01-05T23:24:05.727Z,9.90
2019-01-05T23:26:38.061Z,8.90
2019-01-05T23:29:18.007Z,8.73
2019-01-05T23:31:55.128Z,11.67
2019-01-05T23:34:32.486Z,6.93
2019-01-05T23:37:11.500Z,7.03
2019-01-05T23:39:49.483Z,6.87
2019-01-05T23:42:19.863Z,8.13
2019-01-05T23:45:02.398Z,6.50
2019-01-05T23:47:38.097Z,6.23
2019-01-05T23:50:08.965Z,5.70
2019-01-05T23:52:55.431Z,6.97
2019-01-05T23:55:41.848Z,7.30
2019-01-05T23:58:39.669Z,7.63
